createdAt,value
2023-02-03T00:00:19.321Z,0.00
2023-02-03T00:01:19.305Z,0.00
2023-02-03T00:02:19.368Z,0.00
2023-02-03T00:03:19.349Z,0.00
2023-02-03T00:04:19.300Z,0.00
2023-02-03T00:05:19.300Z,0.00
2023-02-03T00:06:19.311Z,0.00
2023-02-03T00:07:19.307Z,0.00
2023-02-03T00:08:19.307Z,0.00
2023-02-03T00:09:19.309Z,0.00
2023-02-03T00:10:19.309Z,0.00
2023-02-03T00:11:19.309Z,0.00
2023-02-03T00:12:19.306Z,0.00
2023-02-03T00:13:19.305Z,0.00
2023-02-03T00:14:19.330Z,0.00
2023-02-03T00:15:19.316Z,0.00
2023-02-03T00:16:19.361Z,0.00
2023-02-03T00:17:19.308Z,0.00
2023-02-03T00:18:19.325Z,0.00
2023-02-03T00:19:19.309Z,0.00
2023-02-03T00:20:19.317Z,0.00
2023-02-03T00:21:19.311Z,0.00
2023-02-03T00:22:19.323Z,0.00
2023-02-03T00:23:19.316Z,0.00
2023-02-03T00:24:19.315Z,0.00
2023-02-03T00:25:19.312Z,0.00
2023-02-03T00:26:19.341Z,0.00
2023-02-03T00:27:19.313Z,0.00
2023-02-03T00:28:19.314Z,0.00
2023-02-03T00:29:19.313Z,0.00
2023-02-03T00:30:19.315Z,0.00
2023-02-03T00:31:19.391Z,0.00
2023-02-03T00:32:19.512Z,0.00
2023-02-03T00:33:19.334Z,0.00
2023-02-03T00:34:19.320Z,0.00
2023-02-03T00:35:19.325Z,0.00
2023-02-03T00:36:19.326Z,0.00
2023-02-03T00:37:19.326Z,0.00
2023-02-03T00:38:19.324Z,0.00
2023-02-03T00:39:19.318Z,0.00
2023-02-03T00:40:19.328Z,0.00
2023-02-03T00:41:19.328Z,0.00
2023-02-03T00:42:19.325Z,0.00
2023-02-03T00:43:19.328Z,0.00
2023-02-03T00:44:19.323Z,0.00
2023-02-03T00:45:19.324Z,0.00
2023-02-03T00:46:19.393Z,0.00
2023-02-03T00:47:19.335Z,0.00
2023-02-03T00:48:19.352Z,0.00
2023-02-03T00:49:19.341Z,0.00
2023-02-03T00:50:19.326Z,0.00
2023-02-03T00:51:19.336Z,0.00
2023-02-03T00:52:19.325Z,0.00
2023-02-03T00:53:19.332Z,0.00
2023-02-03T00:54:19.331Z,0.00
2023-02-03T00:55:19.339Z,0.00
2023-02-03T00:56:19.337Z,0.00
2023-02-03T00:57:19.336Z,0.00
2023-02-03T00:58:19.339Z,0.00
2023-02-03T00:59:19.329Z,0.00
2023-02-03T01:00:19.332Z,0.00
2023-02-03T01:01:19.408Z,0.00
2023-02-03T01:02:19.431Z,0.00
2023-02-03T01:03:19.336Z,0.00
2023-02-03T01:04:19.353Z,0.00
2023-02-03T01:05:19.343Z,0.00
2023-02-03T01:06:19.341Z,0.00
2023-02-03T01:07:19.344Z,0.00
2023-02-03T01:08:19.337Z,0.00
2023-02-03T01:09:19.340Z,0.00
2023-02-03T01:10:19.337Z,0.00
2023-02-03T01:11:19.345Z,0.00
2023-02-03T01:12:19.338Z,0.00
2023-02-03T01:13:19.347Z,0.00
2023-02-03T01:14:19.348Z,0.00
2023-02-03T01:15:19.347Z,0.00
2023-02-03T01:16:19.438Z,0.00
2023-02-03T01:17:19.342Z,0.00
2023-02-03T01:18:19.350Z,0.00
2023-02-03T01:19:19.343Z,0.00
2023-02-03T01:20:19.364Z,0.00
2023-02-03T01:21:19.365Z,0.00
2023-02-03T01:22:19.353Z,0.00
2023-02-03T01:23:19.352Z,0.00
2023-02-03T01:24:19.349Z,0.00
2023-02-03T01:25:19.391Z,0.00
2023-02-03T01:26:19.348Z,0.00
2023-02-03T01:27:19.350Z,0.00
2023-02-03T01:28:19.349Z,0.00
2023-02-03T01:29:19.358Z,0.00
2023-02-03T01:30:19.351Z,0.00
2023-02-03T01:31:19.466Z,0.00
2023-02-03T01:32:19.354Z,0.00
2023-02-03T01:33:19.352Z,0.00
2023-02-03T01:34:19.355Z,0.00
2023-02-03T01:35:19.353Z,0.00
2023-02-03T01:36:19.385Z,0.00
2023-02-03T01:37:19.361Z,0.00
2023-02-03T01:38:19.356Z,0.00
2023-02-03T01:39:19.358Z,0.00
2023-02-03T01:40:19.359Z,0.00
2023-02-03T01:41:19.367Z,0.00
2023-02-03T01:42:19.366Z,0.00
2023-02-03T01:43:19.366Z,0.00
2023-02-03T01:44:19.361Z,0.00
2023-02-03T01:45:19.364Z,0.00
2023-02-03T01:46:19.420Z,0.00
2023-02-03T01:47:19.371Z,0.00
2023-02-03T01:48:19.364Z,0.00
2023-02-03T01:49:19.371Z,0.00
2023-02-03T01:50:19.369Z,0.00
2023-02-03T01:51:19.365Z,0.00
2023-02-03T01:52:19.394Z,0.00
2023-02-03T01:53:19.387Z,0.00
2023-02-03T01:54:19.386Z,0.00
2023-02-03T01:55:19.378Z,0.00
2023-02-03T01:56:19.399Z,0.00
2023-02-03T01:57:19.377Z,0.00
2023-02-03T01:58:19.379Z,0.00
2023-02-03T01:59:19.375Z,0.00
2023-02-03T02:00:19.380Z,0.00
2023-02-03T02:01:19.834Z,0.00
2023-02-03T02:02:19.461Z,0.00
2023-02-03T02:03:19.375Z,0.00
2023-02-03T02:04:19.381Z,0.00
2023-02-03T02:05:19.378Z,0.00
2023-02-03T02:06:19.394Z,0.00
2023-02-03T02:07:19.385Z,0.00
2023-02-03T02:08:19.403Z,0.00
2023-02-03T02:09:19.382Z,0.00
2023-02-03T02:10:19.395Z,0.00
2023-02-03T02:11:19.393Z,0.00
2023-02-03T02:12:19.386Z,0.00
2023-02-03T02:13:19.401Z,0.00
2023-02-03T02:14:19.394Z,0.00
2023-02-03T02:15:19.395Z,0.00
2023-02-03T02:16:19.438Z,0.00
2023-02-03T02:17:19.391Z,0.00
2023-02-03T02:18:19.431Z,0.00
2023-02-03T02:19:19.401Z,0.00
2023-02-03T02:20:20.862Z,0.00
2023-02-03T02:21:19.402Z,0.00
2023-02-03T02:22:19.407Z,0.00
2023-02-03T02:23:19.399Z,0.00
2023-02-03T02:24:19.429Z,0.00
2023-02-03T02:25:19.405Z,0.00
2023-02-03T02:26:19.404Z,0.00
2023-02-03T02:27:19.412Z,0.00
2023-02-03T02:28:19.620Z,0.00
2023-02-03T02:29:19.416Z,0.00
2023-02-03T02:30:19.418Z,0.00
2023-02-03T02:31:19.515Z,0.00
2023-02-03T02:32:19.413Z,0.00
2023-02-03T02:33:19.417Z,0.00
2023-02-03T02:34:19.418Z,0.00
2023-02-03T02:35:19.410Z,0.00
2023-02-03T02:36:19.421Z,0.00
2023-02-03T02:37:19.422Z,0.00
2023-02-03T02:38:19.426Z,0.00
2023-02-03T02:39:19.415Z,0.00
2023-02-03T02:40:19.452Z,0.00
2023-02-03T02:41:19.427Z,0.00
2023-02-03T02:42:19.420Z,0.00
2023-02-03T02:43:19.431Z,0.00
2023-02-03T02:44:19.428Z,0.00
2023-02-03T02:45:19.434Z,0.00
2023-02-03T02:46:19.482Z,0.00
2023-02-03T02:47:19.435Z,0.00
2023-02-03T02:48:19.428Z,0.00
2023-02-03T02:49:19.438Z,0.00
2023-02-03T02:50:19.436Z,0.00
2023-02-03T02:51:19.432Z,0.00
2023-02-03T02:52:19.438Z,0.00
2023-02-03T02:53:19.434Z,0.00
2023-02-03T02:54:19.449Z,0.00
2023-02-03T02:55:19.444Z,0.00
2023-02-03T02:56:19.471Z,0.00
2023-02-03T02:57:19.441Z,0.00
2023-02-03T02:58:19.445Z,0.00
2023-02-03T02:59:19.444Z,0.00
2023-02-03T03:00:19.448Z,0.00
2023-02-03T03:01:19.640Z,0.00
2023-02-03T03:02:19.465Z,0.00
2023-02-03T03:03:19.465Z,0.00
2023-02-03T03:04:19.464Z,0.00
2023-02-03T03:05:19.471Z,0.00
2023-02-03T03:06:19.476Z,0.00
2023-02-03T03:07:19.458Z,0.00
2023-02-03T03:08:19.462Z,0.00
2023-02-03T03:09:19.508Z,0.00
2023-02-03T03:10:19.465Z,0.00
2023-02-03T03:11:19.462Z,0.00
2023-02-03T03:12:19.496Z,0.00
2023-02-03T03:13:19.478Z,0.00
2023-02-03T03:14:19.474Z,0.00
2023-02-03T03:15:19.478Z,0.00
2023-02-03T03:16:19.546Z,0.00
2023-02-03T03:17:19.477Z,0.00
2023-02-03T03:18:19.490Z,0.00
2023-02-03T03:19:19.487Z,0.00
2023-02-03T03:20:19.488Z,0.00
2023-02-03T03:21:19.491Z,0.00
2023-02-03T03:22:19.492Z,0.00
2023-02-03T03:23:19.503Z,0.00
2023-02-03T03:24:19.491Z,0.00
2023-02-03T03:25:19.498Z,0.00
2023-02-03T03:26:19.496Z,0.00
2023-02-03T03:27:19.500Z,0.00
2023-02-03T03:28:19.635Z,0.00
2023-02-03T03:29:19.499Z,0.00
2023-02-03T03:30:19.508Z,0.00
2023-02-03T03:31:19.701Z,0.00
2023-02-03T03:32:19.514Z,0.00
2023-02-03T03:33:19.513Z,0.00
2023-02-03T03:34:19.522Z,0.00
2023-02-03T03:35:19.515Z,0.00
2023-02-03T03:36:19.531Z,0.00
2023-02-03T03:37:19.522Z,0.00
2023-02-03T03:38:19.526Z,0.00
2023-02-03T03:39:19.519Z,0.00
2023-02-03T03:40:19.528Z,0.00
2023-02-03T03:41:19.533Z,0.00
2023-02-03T03:42:19.524Z,0.00
2023-02-03T03:43:19.546Z,0.00
2023-02-03T03:44:19.565Z,0.00
2023-02-03T03:45:19.537Z,0.00
2023-02-03T03:46:19.592Z,0.00
2023-02-03T03:47:19.534Z,0.00
2023-02-03T03:48:19.551Z,0.00
2023-02-03T03:49:19.546Z,0.00
2023-02-03T03:50:19.539Z,0.00
2023-02-03T03:51:19.541Z,0.00
2023-02-03T03:52:19.543Z,0.00
2023-02-03T03:53:19.561Z,0.00
2023-02-03T03:54:19.556Z,0.00
2023-02-03T03:55:19.559Z,0.00
2023-02-03T03:56:19.553Z,0.00
2023-02-03T03:57:19.556Z,0.00
2023-02-03T03:58:19.566Z,0.00
2023-02-03T03:59:19.566Z,0.00
2023-02-03T04:00:19.586Z,0.00
2023-02-03T04:01:19.641Z,0.00
2023-02-03T04:02:19.595Z,0.00
2023-02-03T04:03:19.687Z,0.00
2023-02-03T04:04:19.583Z,0.00
2023-02-03T04:05:19.570Z,0.00
2023-02-03T04:06:19.576Z,0.00
2023-02-03T04:07:19.582Z,0.00
2023-02-03T04:08:19.582Z,0.00
2023-02-03T04:09:19.590Z,0.00
2023-02-03T04:10:19.591Z,0.00
2023-02-03T04:11:19.585Z,0.00
2023-02-03T04:12:19.591Z,0.00
2023-02-03T04:13:19.596Z,0.00
2023-02-03T04:14:19.593Z,0.00
2023-02-03T04:16:22.241Z,0.00
2023-02-03T04:18:28.459Z,0.00
2023-02-03T04:19:28.793Z,0.00
2023-02-03T04:20:25.097Z,0.00
2023-02-03T04:21:24.760Z,0.00
2023-02-03T04:22:24.760Z,0.00
2023-02-03T04:31:45.085Z,0.00
2023-02-03T04:32:45.553Z,0.00
2023-02-03T04:53:58.930Z,0.00
2023-02-03T04:54:58.866Z,0.00
2023-02-03T04:55:58.883Z,0.00
2023-02-03T04:56:58.893Z,0.00
2023-02-03T05:19:56.131Z,0.00
2023-02-03T05:20:56.108Z,0.00
2023-02-03T05:21:56.108Z,0.00
2023-02-03T05:30:32.058Z,0.00
2023-02-03T05:31:32.059Z,0.00
2023-02-03T05:33:25.607Z,0.00
2023-02-03T05:46:26.632Z,0.00
2023-02-03T05:47:26.600Z,0.00
2023-02-03T05:48:26.596Z,0.00
2023-02-03T05:49:26.603Z,0.00
2023-02-03T05:50:26.893Z,0.00
2023-02-03T05:51:26.600Z,0.00
2023-02-03T05:52:26.611Z,0.00
2023-02-03T05:53:26.614Z,0.00
2023-02-03T05:54:26.611Z,0.00
2023-02-03T05:55:26.614Z,0.00
2023-02-03T05:56:26.630Z,0.00
2023-02-03T05:57:26.625Z,0.00
2023-02-03T05:58:26.630Z,0.00
2023-02-03T05:59:26.624Z,0.00
2023-02-03T06:00:27.019Z,0.00
2023-02-03T06:01:26.634Z,0.00
2023-02-03T06:02:26.684Z,0.00
2023-02-03T06:03:26.712Z,0.00
2023-02-03T06:04:26.721Z,0.00
2023-02-03T06:05:26.639Z,0.00
2023-02-03T06:06:26.643Z,0.00
2023-02-03T06:14:31.695Z,0.00
2023-02-03T06:15:31.704Z,0.00
2023-02-03T06:16:31.772Z,0.00
2023-02-03T06:17:31.721Z,0.00
2023-02-03T06:18:31.713Z,0.00
2023-02-03T06:19:31.710Z,0.00
2023-02-03T06:20:31.703Z,0.00
2023-02-03T06:21:31.711Z,0.00
2023-02-03T06:22:31.709Z,0.00
2023-02-03T06:23:31.715Z,0.00
2023-02-03T06:24:31.724Z,0.00
2023-02-03T06:25:31.725Z,0.00
2023-02-03T06:26:31.722Z,0.00
2023-02-03T06:27:31.724Z,0.00
2023-02-03T06:28:31.735Z,0.00
2023-02-03T06:29:31.730Z,0.00
2023-02-03T06:30:31.886Z,0.00
2023-02-03T06:31:31.971Z,0.00
2023-02-03T06:32:31.747Z,0.00
2023-02-03T06:33:31.772Z,0.00
2023-02-03T06:34:31.743Z,0.00
2023-02-03T06:35:31.752Z,0.00
2023-02-03T06:36:31.768Z,0.00
2023-02-03T06:37:31.759Z,0.00
2023-02-03T06:38:31.764Z,0.00
2023-02-03T06:39:31.756Z,0.00
2023-02-03T06:40:31.850Z,0.00
2023-02-03T06:41:31.771Z,0.00
2023-02-03T06:42:31.774Z,0.00
2023-02-03T06:43:31.767Z,0.00
2023-02-03T06:44:31.778Z,0.00
2023-02-03T06:45:31.787Z,0.00
2023-02-03T06:46:31.913Z,0.00
2023-02-03T06:47:31.796Z,0.00
2023-02-03T06:48:31.785Z,0.00
2023-02-03T06:49:31.815Z,0.00
2023-02-03T06:50:31.806Z,0.00
2023-02-03T06:51:31.794Z,0.00
2023-02-03T06:52:31.805Z,0.00
2023-02-03T06:53:31.808Z,0.00
2023-02-03T06:54:31.818Z,0.00
2023-02-03T06:55:31.811Z,0.00
2023-02-03T06:56:31.814Z,0.00
2023-02-03T06:57:31.808Z,0.00
2023-02-03T06:58:31.813Z,0.00
2023-02-03T06:59:31.816Z,0.00
2023-02-03T07:00:32.148Z,0.00
2023-02-03T07:01:31.921Z,0.00
2023-02-03T07:02:31.893Z,0.00
2023-02-03T07:03:31.833Z,0.00
2023-02-03T07:04:31.833Z,0.00
2023-02-03T07:05:31.859Z,0.00
2023-02-03T07:06:31.835Z,5.63
2023-02-03T07:07:31.843Z,5.63
2023-02-03T07:08:31.848Z,5.63
2023-02-03T07:09:31.848Z,5.63
2023-02-03T07:10:31.966Z,5.63
2023-02-03T07:11:31.863Z,5.63
2023-02-03T07:12:31.858Z,5.63
2023-02-03T07:13:31.854Z,5.63
2023-02-03T07:14:31.864Z,5.63
2023-02-03T07:15:31.984Z,5.63
2023-02-03T07:16:31.870Z,11.25
2023-02-03T07:17:31.875Z,5.63
2023-02-03T07:18:48.153Z,5.63
2023-02-03T07:19:31.871Z,5.63
2023-02-03T07:20:31.952Z,5.63
2023-02-03T07:21:31.959Z,11.25
2023-02-03T07:22:31.890Z,5.63
2023-02-03T07:23:31.908Z,5.63
2023-02-03T07:24:31.886Z,5.63
2023-02-03T07:25:31.919Z,11.25
2023-02-03T07:26:31.894Z,5.63
2023-02-03T07:27:31.904Z,11.25
2023-02-03T07:28:31.906Z,5.63
2023-02-03T07:29:31.902Z,11.25
2023-02-03T07:30:31.974Z,11.25
2023-02-03T07:31:32.077Z,11.25
2023-02-03T07:32:32.941Z,11.25
2023-02-03T07:33:31.947Z,11.25
2023-02-03T07:34:31.922Z,11.25
2023-02-03T07:35:31.934Z,11.25
2023-02-03T07:36:31.922Z,11.25
2023-02-03T07:37:31.967Z,11.25
2023-02-03T07:38:31.926Z,11.25
2023-02-03T07:39:31.942Z,11.25
2023-02-03T07:40:31.945Z,11.25
2023-02-03T07:41:31.940Z,11.25
2023-02-03T07:42:31.938Z,11.25
2023-02-03T07:43:31.948Z,11.25
2023-02-03T07:44:31.944Z,11.25
2023-02-03T07:45:31.956Z,11.25
2023-02-03T07:46:31.989Z,11.25
2023-02-03T07:47:31.954Z,11.25
2023-02-03T07:48:31.968Z,16.88
2023-02-03T07:49:31.959Z,16.88
2023-02-03T07:50:31.972Z,16.88
2023-02-03T07:51:31.975Z,16.88
2023-02-03T07:52:31.977Z,22.50
2023-02-03T07:53:32.014Z,16.88
2023-02-03T07:54:31.979Z,16.88
2023-02-03T07:55:31.989Z,16.88
2023-02-03T07:56:31.981Z,16.88
2023-02-03T07:57:31.994Z,22.50
2023-02-03T07:58:32.007Z,16.88
2023-02-03T07:59:31.991Z,16.88
2023-02-03T08:00:31.998Z,16.88
2023-02-03T08:01:32.017Z,16.88
2023-02-03T08:02:32.002Z,16.88
2023-02-03T08:03:32.013Z,16.88
2023-02-03T08:04:32.030Z,16.88
2023-02-03T08:05:32.011Z,16.88
2023-02-03T08:06:32.023Z,16.88
2023-02-03T08:07:32.038Z,16.88
2023-02-03T08:08:32.020Z,16.88
2023-02-03T08:09:32.058Z,22.50
2023-02-03T08:10:32.023Z,22.50
2023-02-03T08:11:32.031Z,16.88
2023-02-03T08:12:32.034Z,22.50
2023-02-03T08:13:32.035Z,16.88
2023-02-03T08:14:32.043Z,22.50
2023-02-03T08:15:32.050Z,33.75
2023-02-03T08:16:32.121Z,28.13
2023-02-03T08:17:32.062Z,28.13
2023-02-03T08:18:32.824Z,33.75
2023-02-03T08:19:32.058Z,33.75
2023-02-03T08:20:32.055Z,28.13
2023-02-03T08:21:32.083Z,33.75
2023-02-03T08:22:32.073Z,28.13
2023-02-03T08:23:32.083Z,28.13
2023-02-03T08:24:32.076Z,28.13
2023-02-03T08:25:32.090Z,39.38
2023-02-03T08:26:32.093Z,39.38
2023-02-03T08:27:32.091Z,28.13
2023-02-03T08:28:32.094Z,22.50
2023-02-03T08:29:32.084Z,16.88
2023-02-03T08:30:32.099Z,33.75
2023-02-03T08:31:32.218Z,50.63
2023-02-03T08:32:32.101Z,50.63
2023-02-03T08:33:32.093Z,45.00
2023-02-03T08:34:32.099Z,50.63
2023-02-03T08:35:32.108Z,33.75
2023-02-03T08:36:32.124Z,33.75
2023-02-03T08:37:32.113Z,28.13
2023-02-03T08:38:32.120Z,28.13
2023-02-03T08:39:32.117Z,22.50
2023-02-03T08:40:32.126Z,33.75
2023-02-03T08:41:32.149Z,28.13
2023-02-03T08:42:32.125Z,28.13
2023-02-03T08:43:32.129Z,33.75
2023-02-03T08:44:32.146Z,33.75
2023-02-03T08:45:32.226Z,33.75
2023-02-03T08:46:32.137Z,28.13
2023-02-03T08:47:32.152Z,22.50
2023-02-03T08:48:32.150Z,28.13
2023-02-03T08:49:32.149Z,28.13
2023-02-03T08:50:32.156Z,22.50
2023-02-03T08:51:32.156Z,16.88
2023-02-03T08:52:32.163Z,22.50
2023-02-03T08:53:32.165Z,22.50
2023-02-03T08:54:32.191Z,22.50
2023-02-03T08:55:32.165Z,22.50
2023-02-03T08:56:32.178Z,28.13
2023-02-03T08:57:32.245Z,28.13
2023-02-03T08:58:32.179Z,39.38
2023-02-03T08:59:32.188Z,39.38
2023-02-03T09:00:32.197Z,28.13
2023-02-03T09:01:32.244Z,28.13
2023-02-03T09:02:32.191Z,28.13
2023-02-03T09:03:32.198Z,28.13
2023-02-03T09:04:32.221Z,28.13
2023-02-03T09:05:32.210Z,28.13
2023-02-03T09:06:32.205Z,33.75
2023-02-03T09:07:32.217Z,39.38
2023-02-03T09:08:32.216Z,39.38
2023-02-03T09:09:32.213Z,39.38
2023-02-03T09:10:32.217Z,45.00
2023-02-03T09:11:32.219Z,45.00
2023-02-03T09:12:32.226Z,39.38
2023-02-03T09:13:32.247Z,45.00
2023-02-03T09:14:32.230Z,50.63
2023-02-03T09:15:32.238Z,33.75
2023-02-03T09:16:32.265Z,39.38
2023-02-03T09:17:32.274Z,39.38
2023-02-03T09:18:32.255Z,33.75
2023-02-03T09:19:34.743Z,33.75
2023-02-03T09:20:32.600Z,33.75
2023-02-03T09:21:36.860Z,39.38
2023-02-03T09:22:32.255Z,39.38
2023-02-03T09:23:32.263Z,33.75
2023-02-03T09:24:32.264Z,39.38
2023-02-03T09:25:32.273Z,39.38
2023-02-03T09:26:32.280Z,39.38
2023-02-03T09:27:32.274Z,39.38
2023-02-03T09:28:32.284Z,39.38
2023-02-03T09:29:32.302Z,39.38
2023-02-03T09:30:32.685Z,28.13
2023-02-03T09:31:32.319Z,22.50
2023-02-03T09:32:32.289Z,28.13
2023-02-03T09:33:32.295Z,22.50
2023-02-03T09:34:32.296Z,28.13
2023-02-03T09:35:32.316Z,28.13
2023-02-03T09:36:32.313Z,22.50
2023-02-03T09:37:32.340Z,22.50
2023-02-03T09:38:32.319Z,22.50
2023-02-03T09:39:32.313Z,22.50
2023-02-03T09:40:32.326Z,22.50
2023-02-03T09:41:32.333Z,22.50
2023-02-03T09:42:32.321Z,33.75
2023-02-03T09:43:32.348Z,28.13
2023-02-03T09:44:32.334Z,22.50
2023-02-03T09:45:32.356Z,22.50
2023-02-03T09:46:32.344Z,28.13
2023-02-03T09:47:32.361Z,28.13
2023-02-03T09:48:32.343Z,45.00
2023-02-03T09:49:32.358Z,33.75
2023-02-03T09:50:32.360Z,22.50
2023-02-03T09:51:32.372Z,22.50
2023-02-03T09:52:32.366Z,22.50
2023-02-03T09:53:32.360Z,16.88
2023-02-03T09:54:32.402Z,22.50
2023-02-03T09:55:32.373Z,16.88
2023-02-03T09:56:32.383Z,16.88
2023-02-03T09:57:32.383Z,22.50
2023-02-03T09:58:32.376Z,28.13
2023-02-03T09:59:32.379Z,33.75
2023-02-03T10:00:32.390Z,45.00
2023-02-03T10:01:32.477Z,39.38
2023-02-03T10:02:32.488Z,28.13
2023-02-03T10:03:32.407Z,45.00
2023-02-03T10:04:32.407Z,50.63
2023-02-03T10:05:32.411Z,56.25
2023-02-03T10:06:32.439Z,67.50
2023-02-03T10:07:32.411Z,56.25
2023-02-03T10:08:32.409Z,39.38
2023-02-03T10:09:32.417Z,45.00
2023-02-03T10:10:32.439Z,39.38
2023-02-03T10:11:32.433Z,45.00
2023-02-03T10:12:32.430Z,45.00
2023-02-03T10:13:32.433Z,50.63
2023-02-03T10:14:32.436Z,28.13
2023-02-03T10:15:32.439Z,39.38
2023-02-03T10:16:32.526Z,45.00
2023-02-03T10:17:32.484Z,61.88
2023-02-03T10:18:32.462Z,50.63
2023-02-03T10:19:32.468Z,67.50
2023-02-03T10:20:32.452Z,61.88
2023-02-03T10:21:32.453Z,112.50
2023-02-03T10:22:32.482Z,67.50
2023-02-03T10:23:32.467Z,95.63
2023-02-03T10:24:32.475Z,61.88
2023-02-03T10:25:32.467Z,56.25
2023-02-03T10:26:32.478Z,56.25
2023-02-03T10:27:32.496Z,78.75
2023-02-03T10:28:32.490Z,90.00
2023-02-03T10:29:32.486Z,123.75
2023-02-03T10:30:33.116Z,129.38
2023-02-03T10:31:32.628Z,146.25
2023-02-03T10:32:32.501Z,146.25
2023-02-03T10:33:32.523Z,157.50
2023-02-03T10:34:32.500Z,112.50
2023-02-03T10:35:32.502Z,129.38
2023-02-03T10:36:32.523Z,140.63
2023-02-03T10:37:32.509Z,106.88
2023-02-03T10:38:32.529Z,112.50
2023-02-03T10:39:32.518Z,106.88
2023-02-03T10:40:32.531Z,106.88
2023-02-03T10:41:32.524Z,112.50
2023-02-03T10:42:32.540Z,106.88
2023-02-03T10:43:32.539Z,146.25
2023-02-03T10:44:32.547Z,146.25
2023-02-03T10:45:32.548Z,146.25
2023-02-03T10:46:32.628Z,118.13
2023-02-03T10:47:32.552Z,106.88
2023-02-03T10:48:32.586Z,106.88
2023-02-03T10:49:32.583Z,129.38
2023-02-03T10:50:32.570Z,95.63
2023-02-03T10:51:32.572Z,78.75
2023-02-03T10:52:32.579Z,90.00
2023-02-03T10:53:32.593Z,90.00
2023-02-03T10:54:32.587Z,61.88
2023-02-03T10:55:32.588Z,78.75
2023-02-03T10:56:32.593Z,61.88
2023-02-03T10:57:32.599Z,61.88
2023-02-03T10:58:32.602Z,50.63
2023-02-03T10:59:32.605Z,45.00
2023-02-03T11:00:32.615Z,67.50
2023-02-03T11:01:32.687Z,67.50
2023-02-03T11:02:32.664Z,61.88
2023-02-03T11:03:32.616Z,61.88
2023-02-03T11:04:32.631Z,61.88
2023-02-03T11:05:32.690Z,56.25
2023-02-03T11:06:32.623Z,90.00
2023-02-03T11:07:32.637Z,84.38
2023-02-03T11:08:32.644Z,73.13
2023-02-03T11:09:32.641Z,106.88
2023-02-03T11:10:32.636Z,129.38
2023-02-03T11:11:32.665Z,118.13
2023-02-03T11:12:32.649Z,106.88
2023-02-03T11:13:32.654Z,135.00
2023-02-03T11:14:32.660Z,151.88
2023-02-03T11:15:32.757Z,123.75
2023-02-03T11:16:32.668Z,95.63
2023-02-03T11:17:32.701Z,50.63
2023-02-03T11:18:32.666Z,90.00
2023-02-03T11:19:32.687Z,95.63
2023-02-03T11:20:32.680Z,106.88
2023-02-03T11:21:32.715Z,101.25
2023-02-03T11:22:32.685Z,112.50
2023-02-03T11:23:32.683Z,123.75
2023-02-03T11:24:32.694Z,140.63
2023-02-03T11:25:32.697Z,151.88
2023-02-03T11:26:32.712Z,180.00
2023-02-03T11:27:32.700Z,202.50
2023-02-03T11:28:32.718Z,208.13
2023-02-03T11:29:32.718Z,219.38
2023-02-03T11:30:32.710Z,230.63
2023-02-03T11:31:32.847Z,225.00
2023-02-03T11:32:32.720Z,213.75
2023-02-03T11:33:32.725Z,213.75
2023-02-03T11:34:32.745Z,219.38
2023-02-03T11:35:32.737Z,225.00
2023-02-03T11:36:32.740Z,236.25
2023-02-03T11:37:32.781Z,247.50
2023-02-03T11:38:32.745Z,253.13
2023-02-03T11:39:32.752Z,270.00
2023-02-03T11:40:32.763Z,281.25
2023-02-03T11:41:32.761Z,281.25
2023-02-03T11:42:32.758Z,292.50
2023-02-03T11:43:32.760Z,292.50
2023-02-03T11:44:32.773Z,303.75
2023-02-03T11:45:32.772Z,303.75
2023-02-03T11:46:32.829Z,298.13
2023-02-03T11:47:32.781Z,298.13
2023-02-03T11:48:32.789Z,292.50
2023-02-03T11:49:32.787Z,298.13
2023-02-03T11:50:32.799Z,286.88
2023-02-03T11:51:32.796Z,264.38
2023-02-03T11:52:32.811Z,298.13
2023-02-03T11:53:32.824Z,258.75
2023-02-03T11:54:32.809Z,208.13
2023-02-03T11:55:32.836Z,219.38
2023-02-03T11:56:32.832Z,225.00
2023-02-03T11:57:32.829Z,225.00
2023-02-03T11:58:32.833Z,241.88
2023-02-03T11:59:32.837Z,225.00
2023-02-03T12:00:32.843Z,264.38
2023-02-03T12:01:32.837Z,219.38
2023-02-03T12:02:32.898Z,225.00
2023-02-03T12:03:32.855Z,241.88
2023-02-03T12:04:32.925Z,225.00
2023-02-03T12:05:32.857Z,208.13
2023-02-03T12:06:32.874Z,202.50
2023-02-03T12:07:32.864Z,225.00
2023-02-03T12:08:32.881Z,202.50
2023-02-03T12:09:32.906Z,191.25
2023-02-03T12:10:32.886Z,230.63
2023-02-03T12:11:32.894Z,241.88
2023-02-03T12:12:32.898Z,219.38
2023-02-03T12:13:32.894Z,196.88
2023-02-03T12:14:32.904Z,213.75
2023-02-03T12:15:32.917Z,213.75
2023-02-03T12:16:32.978Z,180.00
2023-02-03T12:17:32.909Z,151.88
2023-02-03T12:18:32.916Z,146.25
2023-02-03T12:19:32.935Z,225.00
2023-02-03T12:20:32.922Z,219.38
2023-02-03T12:21:32.927Z,230.63
2023-02-03T12:22:32.930Z,286.88
2023-02-03T12:23:32.937Z,303.75
2023-02-03T12:24:32.945Z,309.38
2023-02-03T12:25:32.977Z,303.75
2023-02-03T12:26:32.961Z,298.13
2023-02-03T12:27:32.960Z,292.50
2023-02-03T12:28:34.304Z,286.88
2023-02-03T12:29:32.968Z,281.25
2023-02-03T12:30:33.129Z,286.88
2023-02-03T12:31:33.031Z,281.25
2023-02-03T12:32:32.977Z,270.00
2023-02-03T12:33:32.980Z,258.75
2023-02-03T12:34:33.026Z,247.50
2023-02-03T12:35:32.996Z,253.13
2023-02-03T12:36:33.005Z,247.50
2023-02-03T12:37:33.006Z,241.88
2023-02-03T12:38:33.004Z,241.88
2023-02-03T12:39:33.011Z,236.25
2023-02-03T12:40:33.020Z,236.25
2023-02-03T12:41:33.047Z,236.25
2023-02-03T12:42:33.027Z,236.25
2023-02-03T12:43:33.027Z,241.88
2023-02-03T12:44:33.030Z,253.13
2023-02-03T12:45:33.057Z,253.13
2023-02-03T12:46:33.040Z,258.75
2023-02-03T12:47:33.088Z,258.75
2023-02-03T12:48:33.056Z,253.13
2023-02-03T12:49:33.056Z,241.88
2023-02-03T12:50:33.058Z,230.63
2023-02-03T12:51:33.072Z,241.88
2023-02-03T12:52:33.076Z,247.50
2023-02-03T12:53:33.090Z,258.75
2023-02-03T12:54:33.091Z,253.13
2023-02-03T12:55:33.082Z,230.63
2023-02-03T12:56:33.088Z,236.25
2023-02-03T12:57:33.152Z,208.13
2023-02-03T12:58:34.652Z,236.25
2023-02-03T12:59:33.111Z,208.13
2023-02-03T13:00:33.127Z,202.50
2023-02-03T13:01:33.125Z,174.38
2023-02-03T13:02:33.180Z,151.88
2023-02-03T13:03:33.129Z,196.88
2023-02-03T13:04:33.132Z,208.13
2023-02-03T13:05:33.137Z,230.63
2023-02-03T13:06:33.152Z,236.25
2023-02-03T13:07:33.148Z,225.00
2023-02-03T13:08:33.155Z,236.25
2023-02-03T13:09:33.167Z,236.25
2023-02-03T13:10:33.160Z,230.63
2023-02-03T13:11:33.164Z,202.50
2023-02-03T13:12:33.170Z,219.38
2023-02-03T13:13:33.210Z,208.13
2023-02-03T13:14:33.172Z,208.13
2023-02-03T13:15:33.177Z,219.38
2023-02-03T13:16:33.276Z,208.13
2023-02-03T13:17:33.191Z,191.25
2023-02-03T13:18:33.199Z,213.75
2023-02-03T13:19:33.204Z,213.75
2023-02-03T13:20:33.199Z,225.00
2023-02-03T13:21:33.205Z,219.38
2023-02-03T13:22:33.217Z,236.25
2023-02-03T13:23:33.214Z,236.25
2023-02-03T13:24:33.220Z,241.88
2023-02-03T13:25:33.221Z,230.63
2023-02-03T13:26:33.233Z,225.00
2023-02-03T13:27:33.253Z,230.63
2023-02-03T13:28:33.236Z,230.63
2023-02-03T13:29:33.262Z,230.63
2023-02-03T13:30:33.254Z,230.63
2023-02-03T13:31:33.312Z,230.63
2023-02-03T13:32:33.252Z,236.25
2023-02-03T13:33:33.266Z,241.88
2023-02-03T13:34:35.085Z,236.25
2023-02-03T13:35:34.578Z,230.63
2023-02-03T13:36:33.280Z,219.38
2023-02-03T13:37:33.289Z,213.75
2023-02-03T13:38:33.301Z,208.13
2023-02-03T13:39:33.293Z,208.13
2023-02-03T13:40:33.292Z,208.13
2023-02-03T13:41:33.304Z,208.13
2023-02-03T13:42:33.309Z,213.75
2023-02-03T13:43:38.695Z,213.75
2023-02-03T13:44:33.308Z,213.75
2023-02-03T13:45:33.393Z,213.75
2023-02-03T13:46:33.321Z,213.75
2023-02-03T13:47:33.324Z,213.75
2023-02-03T13:48:33.330Z,219.38
2023-02-03T13:49:33.346Z,219.38
2023-02-03T13:50:33.337Z,219.38
2023-02-03T13:51:33.351Z,219.38
2023-02-03T13:52:33.348Z,219.38
2023-02-03T13:53:33.352Z,213.75
2023-02-03T13:54:33.370Z,202.50
2023-02-03T13:55:33.370Z,191.25
2023-02-03T13:56:33.384Z,180.00
2023-02-03T13:57:33.371Z,168.75
2023-02-03T13:58:33.383Z,163.13
2023-02-03T13:59:33.390Z,157.50
2023-02-03T14:00:33.391Z,157.50
2023-02-03T14:01:33.462Z,151.88
2023-02-03T14:02:33.402Z,146.25
2023-02-03T14:03:33.457Z,140.63
2023-02-03T14:04:33.446Z,140.63
2023-02-03T14:05:33.415Z,140.63
2023-02-03T14:06:33.408Z,146.25
2023-02-03T14:07:33.429Z,146.25
2023-02-03T14:08:33.422Z,146.25
2023-02-03T14:09:33.431Z,146.25
2023-02-03T14:10:33.435Z,140.63
2023-02-03T14:11:33.430Z,140.63
2023-02-03T14:12:33.445Z,140.63
2023-02-03T14:13:33.447Z,140.63
2023-02-03T14:14:33.453Z,135.00
2023-02-03T14:15:33.531Z,135.00
2023-02-03T14:16:33.490Z,123.75
2023-02-03T14:17:33.482Z,123.75